Time;durP1;ratioP1;P1;durP2;ratioP2;P2;SDS_P1;SDS_P2;PMS_P1;PMS_P2;Temp;Humidity;BMP_temperature;BMP_pressure;BME280_temperature;BME280_humidity;BME280_pressure;Samples;Min_cycle;Max_cycle;Signal;HPM_P1;HPM_P2
2024/01/10 00:02:24;;;;;;;5.13;1.40;;;-3.80;92.20;;;;;;5026806;28;20033;-79
2024/01/10 00:04:55;;;;;;;4.78;0.90;;;-3.80;92.30;;;;;;5024985;28;20044;-79
2024/01/10 00:07:23;;;;;;;4.63;1.30;;;-3.80;92.60;;;;;;5055217;28;20021;-78
2024/01/10 00:09:52;;;;;;;4.03;1.42;;;-3.80;92.40;;;;;;5052963;28;20025;-79
2024/01/10 00:12:17;;;;;;;5.20;1.35;;;-3.80;92.50;;;;;;5051312;28;20058;-79
2024/01/10 00:14:43;;;;;;;6.50;1.67;;;-3.80;92.50;;;;;;5029395;28;20186;-79
2024/01/10 00:17:10;;;;;;;5.35;1.83;;;-3.80;92.70;;;;;;5052378;28;20626;-79
2024/01/10 00:19:35;;;;;;;5.63;1.58;;;-3.90;92.80;;;;;;5035467;28;20171;-78
2024/01/10 00:22:01;;;;;;;5.32;1.40;;;-3.90;92.70;;;;;;5052075;28;20044;-79
2024/01/10 00:24:26;;;;;;;4.97;1.35;;;-3.90;92.90;;;;;;5037096;28;20037;-79
2024/01/10 00:26:52;;;;;;;4.53;1.60;;;-3.90;93.30;;;;;;5030439;28;20021;-79
2024/01/10 00:29:19;;;;;;;3.90;1.35;;;-3.90;93.20;;;;;;5049757;28;20025;-78
2024/01/10 00:31:47;;;;;;;5.88;1.83;;;-3.90;93.30;;;;;;5020564;28;20477;-78
2024/01/10 00:34:14;;;;;;;4.68;1.60;;;-4.00;93.30;;;;;;5033557;28;20428;-78
2024/01/10 00:36:39;;;;;;;4.70;1.50;;;-4.00;93.40;;;;;;5030462;28;20040;-78
2024/01/10 00:39:06;;;;;;;4.97;1.63;;;-4.00;93.50;;;;;;5050725;28;20029;-78
2024/01/10 00:41:32;;;;;;;5.90;1.92;;;-4.00;93.60;;;;;;5048626;28;20025;-78
2024/01/10 00:43:57;;;;;;;3.95;1.33;;;-4.10;93.70;;;;;;5034390;28;20404;-78
2024/01/10 00:46:27;;;;;;;6.40;1.55;;;-4.10;93.50;;;;;;5033120;28;20083;-78
2024/01/10 00:48:53;;;;;;;6.13;1.70;;;-4.10;93.80;;;;;;5052960;28;20032;-78
2024/01/10 00:51:18;;;;;;;6.15;2.63;;;-4.10;93.90;;;;;;5051196;28;20393;-78
2024/01/10 00:53:44;;;;;;;6.95;2.20;;;-4.10;94.00;;;;;;5050729;28;20100;-78
2024/01/10 00:56:09;;;;;;;3.47;1.23;;;-4.10;94.10;;;;;;5052221;28;20033;-78
2024/01/10 00:58:38;;;;;;;6.43;1.92;;;-4.20;94.10;;;;;;5047944;28;20032;-78
2024/01/10 01:01:04;;;;;;;5.90;2.10;;;-4.20;94.30;;;;;;5048799;28;20032;-78
2024/01/10 01:03:29;;;;;;;5.53;1.67;;;-4.30;94.30;;;;;;5051405;28;20036;-78
2024/01/10 01:05:55;;;;;;;5.22;1.52;;;-4.30;94.60;;;;;;5022786;28;20116;-78
2024/01/10 01:08:20;;;;;;;6.30;1.73;;;-4.30;94.70;;;;;;5051735;28;20021;-78
2024/01/10 01:10:46;;;;;;;7.68;1.13;;;-4.30;95.00;;;;;;5063970;28;20064;-78
2024/01/10 01:13:11;;;;;;;5.18;1.45;;;-4.20;95.20;;;;;;5062826;28;20033;-78
2024/01/10 01:15:37;;;;;;;4.82;1.88;;;-4.30;95.20;;;;;;5044968;28;20599;-78
2024/01/10 01:18:03;;;;;;;5.90;1.95;;;-4.30;95.40;;;;;;5051429;28;20033;-78
2024/01/10 01:20:30;;;;;;;6.18;1.77;;;-4.30;95.60;;;;;;5032060;28;20507;-78
2024/01/10 01:22:55;;;;;;;6.15;1.73;;;-4.20;95.80;;;;;;5025165;28;20515;-78
2024/01/10 01:25:21;;;;;;;4.80;1.60;;;-4.30;96.00;;;;;;5049315;28;20037;-78
2024/01/10 01:27:47;;;;;;;3.90;1.63;;;-4.30;96.20;;;;;;5044382;28;20028;-78
2024/01/10 01:30:12;;;;;;;5.85;1.77;;;-4.30;96.40;;;;;;5049858;28;20370;-77
2024/01/10 01:32:39;;;;;;;4.38;1.48;;;-4.30;96.80;;;;;;5038564;28;20032;-78
2024/01/10 01:35:05;;;;;;;7.03;1.63;;;-4.30;96.80;;;;;;5048096;28;20025;-78
2024/01/10 01:37:30;;;;;;;3.65;1.40;;;-4.30;97.00;;;;;;5051276;28;20389;-78
2024/01/10 01:39:56;;;;;;;4.63;1.30;;;-4.40;97.20;;;;;;5044118;28;20025;-77
2024/01/10 01:42:21;;;;;;;6.35;2.00;;;-4.40;97.60;;;;;;5038768;28;20071;-77
2024/01/10 01:44:47;;;;;;;5.97;1.42;;;-4.40;97.90;;;;;;5049731;28;20547;-78
2024/01/10 01:47:13;;;;;;;6.07;1.70;;;-4.40;98.10;;;;;;5046921;28;20075;-78
2024/01/10 01:49:46;;;;;;;6.30;1.73;;;-4.40;98.10;;;;;;5035637;28;20048;-79
2024/01/10 01:52:12;;;;;;;5.88;1.80;;;-4.50;98.40;;;;;;5031963;28;20107;-78
2024/01/10 01:54:38;;;;;;;5.85;1.45;;;-4.50;98.60;;;;;;5042183;28;20119;-77
2024/01/10 01:57:04;;;;;;;4.72;1.70;;;-4.50;98.70;;;;;;5049051;28;20029;-77
2024/01/10 01:59:29;;;;;;;6.70;1.67;;;-4.50;99.10;;;;;;5034982;28;20029;-78
2024/01/10 02:02:00;;;;;;;4.00;1.30;;;-4.50;99.30;;;;;;5040744;28;20764;-77
2024/01/10 02:04:31;;;;;;;6.35;1.75;;;-4.40;99.60;;;;;;5045980;28;20508;-78
2024/01/10 02:06:57;;;;;;;5.45;2.00;;;-4.50;99.60;;;;;;5039354;28;20127;-78
2024/01/10 02:09:22;;;;;;;6.72;1.67;;;-4.50;99.90;;;;;;5047948;28;20029;-78
2024/01/10 02:11:48;;;;;;;5.00;1.70;;;-4.40;99.90;;;;;;5025317;28;20102;-77
2024/01/10 02:14:17;;;;;;;7.60;2.08;;;-4.50;99.90;;;;;;5047941;28;20514;-78
2024/01/10 02:16:43;;;;;;;6.15;1.65;;;-4.50;99.90;;;;;;5048323;28;20029;-77
2024/01/10 02:19:22;;;;;;;5.53;1.75;;;-4.50;99.90;;;;;;5042246;28;20029;-77
2024/01/10 02:21:48;;;;;;;7.13;1.60;;;-4.50;99.90;;;;;;5032689;28;20508;-78
2024/01/10 02:24:17;;;;;;;5.88;1.60;;;-4.50;99.90;;;;;;5048779;28;20045;-78
2024/01/10 02:26:43;;;;;;;6.03;2.03;;;-4.50;99.90;;;;;;5046176;28;20028;-78
2024/01/10 02:29:09;;;;;;;6.43;2.10;;;-4.60;99.90;;;;;;5034914;28;20029;-77
2024/01/10 02:31:34;;;;;;;6.25;2.10;;;-4.60;99.90;;;;;;5046768;28;20036;-77
2024/01/10 02:34:02;;;;;;;5.03;1.50;;;-4.60;99.90;;;;;;5046503;28;20060;-78
2024/01/10 02:36:32;;;;;;;8.13;2.53;;;-4.50;99.90;;;;;;5014971;28;20482;-77
2024/01/10 02:38:58;;;;;;;5.75;1.75;;;-4.60;99.90;;;;;;5043784;28;20485;-77
2024/01/10 02:41:23;;;;;;;4.85;1.40;;;-4.60;99.90;;;;;;5045096;28;20096;-77
2024/01/10 02:43:49;;;;;;;4.13;1.23;;;-4.60;99.90;;;;;;5045234;28;20516;-77
2024/01/10 02:46:16;;;;;;;4.88;1.80;;;-4.60;99.90;;;;;;5008574;28;20580;-78
2024/01/10 02:48:43;;;;;;;6.15;1.80;;;-4.60;99.90;;;;;;5051750;28;20029;-77
2024/01/10 02:51:08;;;;;;;6.95;1.92;;;-4.60;99.90;;;;;;5057193;28;20499;-78
2024/01/10 02:53:34;;;;;;;7.70;2.63;;;-4.60;99.90;;;;;;5047990;28;20100;-77
2024/01/10 02:56:00;;;;;;;7.38;2.15;;;-4.60;99.90;;;;;;5029131;28;20571;-77
2024/01/10 02:58:25;;;;;;;6.15;2.45;;;-4.60;99.90;;;;;;5034270;28;20053;-78
2024/01/10 03:00:53;;;;;;;4.75;1.42;;;-4.70;99.90;;;;;;5046965;28;20024;-79
2024/01/10 03:03:21;;;;;;;7.05;1.67;;;-4.70;99.90;;;;;;5032662;28;20104;-77
2024/01/10 03:05:47;;;;;;;6.45;2.05;;;-4.70;99.90;;;;;;5046808;28;20037;-78
2024/01/10 03:08:13;;;;;;;8.50;2.20;;;-4.60;99.90;;;;;;5029873;28;20035;-77
2024/01/10 03:10:38;;;;;;;6.82;1.85;;;-4.60;99.90;;;;;;5047523;28;20029;-78
2024/01/10 03:13:04;;;;;;;6.80;1.88;;;-4.70;99.90;;;;;;5045743;28;20086;-77
2024/01/10 03:15:30;;;;;;;5.65;2.03;;;-4.70;99.90;;;;;;5040452;28;20060;-77
2024/01/10 03:17:56;;;;;;;6.15;1.88;;;-4.70;99.90;;;;;;5036106;28;20021;-77
2024/01/10 03:20:23;;;;;;;5.35;2.00;;;-4.70;99.90;;;;;;5037550;28;20040;-78
2024/01/10 03:22:48;;;;;;;6.10;1.58;;;-4.80;99.90;;;;;;4989551;28;20054;-78
2024/01/10 03:25:14;;;;;;;7.15;1.83;;;-4.80;99.90;;;;;;5011268;28;20038;-78
2024/01/10 03:27:40;;;;;;;5.70;2.00;;;-4.80;99.90;;;;;;5007250;28;20018;-78
2024/01/10 03:30:06;;;;;;;7.03;2.15;;;-4.80;99.90;;;;;;5006426;28;20030;-78
2024/01/10 03:32:31;;;;;;;7.55;2.28;;;-4.80;99.90;;;;;;5011380;28;20076;-78
2024/01/10 03:34:57;;;;;;;8.68;1.85;;;-4.80;99.90;;;;;;4996776;28;20029;-78
2024/01/10 03:37:23;;;;;;;8.40;2.55;;;-4.80;99.90;;;;;;5015182;28;20079;-78
2024/01/10 03:39:58;;;;;;;5.65;1.73;;;-4.80;99.90;;;;;;5010543;28;20529;-78
2024/01/10 03:42:24;;;;;;;8.07;1.60;;;-4.80;99.90;;;;;;5011567;28;20056;-79
2024/01/10 03:44:50;;;;;;;6.03;2.22;;;-4.80;99.90;;;;;;5012415;28;20046;-79
2024/01/10 03:47:18;;;;;;;7.65;2.28;;;-4.80;99.90;;;;;;5018852;28;20496;-78
2024/01/10 03:49:47;;;;;;;8.25;2.47;;;-4.80;99.90;;;;;;5009460;28;20030;-78
2024/01/10 03:52:13;;;;;;;3.88;1.17;;;-4.80;99.90;;;;;;5012297;28;20061;-78
2024/01/10 03:54:38;;;;;;;5.45;2.15;;;-4.80;99.90;;;;;;5010408;28;20026;-79
2024/01/10 03:57:04;;;;;;;5.95;1.77;;;-4.80;99.90;;;;;;5012957;28;20033;-78
2024/01/10 03:59:30;;;;;;;6.35;1.75;;;-4.90;99.90;;;;;;5010161;28;20025;-78
2024/01/10 04:01:56;;;;;;;8.43;1.88;;;-4.80;99.90;;;;;;5012763;28;20102;-77
2024/01/10 04:04:22;;;;;;;6.75;1.75;;;-4.90;99.90;;;;;;5011588;28;20033;-78
2024/01/10 04:06:48;;;;;;;5.63;1.95;;;-4.90;99.90;;;;;;5010896;28;20029;-78
2024/01/10 04:09:13;;;;;;;8.63;1.85;;;-4.90;99.90;;;;;;4993818;28;20038;-78
2024/01/10 04:11:40;;;;;;;6.95;2.38;;;-4.80;99.90;;;;;;5013024;28;20105;-78
2024/01/10 04:14:06;;;;;;;5.47;1.77;;;-4.80;99.90;;;;;;5014784;28;20567;-77
2024/01/10 04:16:31;;;;;;;8.05;1.67;;;-4.90;99.90;;;;;;5015232;28;20027;-78
2024/01/10 04:18:57;;;;;;;7.70;1.63;;;-4.80;99.90;;;;;;5009696;28;20057;-77
2024/01/10 04:21:23;;;;;;;6.18;2.15;;;-4.80;99.90;;;;;;5011807;28;20366;-77
2024/01/10 04:23:48;;;;;;;6.28;2.13;;;-4.80;99.90;;;;;;5046351;28;20045;-78
2024/01/10 04:26:14;;;;;;;9.00;2.70;;;-4.90;99.90;;;;;;5050066;28;20025;-77
2024/01/10 04:28:41;;;;;;;5.28;2.15;;;-4.90;99.90;;;;;;5056899;28;20029;-76
2024/01/10 04:31:07;;;;;;;7.70;1.90;;;-4.90;99.90;;;;;;5049022;28;20036;-77
2024/01/10 04:33:32;;;;;;;7.07;1.80;;;-4.90;99.90;;;;;;5047976;28;20029;-75
2024/01/10 04:36:01;;;;;;;5.43;2.25;;;-4.80;99.90;;;;;;5050661;28;20048;-76
2024/01/10 04:38:26;;;;;;;9.68;2.05;;;-4.90;99.90;;;;;;5049089;28;20033;-76
2024/01/10 04:40:52;;;;;;;7.97;2.85;;;-4.90;99.90;;;;;;5043436;28;20381;-76
2024/01/10 04:43:18;;;;;;;7.40;2.10;;;-4.80;99.90;;;;;;5054887;28;20064;-76
2024/01/10 04:45:44;;;;;;;8.32;2.42;;;-4.90;99.90;;;;;;5057411;28;20025;-75
2024/01/10 04:48:10;;;;;;;11.55;2.42;;;-4.90;99.90;;;;;;5057980;28;20063;-76
2024/01/10 04:50:36;;;;;;;8.05;2.65;;;-4.90;99.90;;;;;;5036847;28;20057;-74
2024/01/10 04:53:01;;;;;;;7.28;1.67;;;-4.90;99.90;;;;;;5055891;28;20021;-74
2024/01/10 04:55:27;;;;;;;6.28;1.83;;;-5.00;99.90;;;;;;5034903;28;20112;-75
2024/01/10 04:57:54;;;;;;;7.32;2.20;;;-4.90;99.90;;;;;;5054128;28;20484;-75
2024/01/10 05:00:23;;;;;;;7.70;2.35;;;-4.90;99.90;;;;;;5056195;28;20515;-75
2024/01/10 05:02:48;;;;;;;8.98;2.72;;;-4.90;99.90;;;;;;5041577;28;20056;-74
2024/01/10 05:05:14;;;;;;;7.32;2.22;;;-4.90;99.90;;;;;;5057103;28;20076;-76
2024/01/10 05:07:40;;;;;;;8.45;2.65;;;-4.90;99.90;;;;;;5055344;28;20029;-81
2024/01/10 05:10:06;;;;;;;5.97;2.17;;;-5.00;99.90;;;;;;5049570;28;20985;-75
2024/01/10 05:12:31;;;;;;;6.40;2.22;;;-5.00;99.90;;;;;;5047960;28;20033;-75
2024/01/10 05:14:57;;;;;;;5.90;1.95;;;-5.00;99.90;;;;;;5048935;28;20032;-76
2024/01/10 05:17:22;;;;;;;7.07;1.95;;;-5.00;99.90;;;;;;5047813;28;20009;-76
2024/01/10 05:19:53;;;;;;;5.70;2.38;;;-5.00;99.90;;;;;;5052500;28;20515;-76
2024/01/10 05:22:18;;;;;;;9.77;2.20;;;-5.00;99.90;;;;;;5051923;28;20029;-76
2024/01/10 05:24:46;;;;;;;6.32;2.35;;;-5.00;99.90;;;;;;5050340;28;20032;-76
2024/01/10 05:27:12;;;;;;;6.15;1.52;;;-5.10;99.90;;;;;;5052707;28;20505;-76
2024/01/10 05:29:38;;;;;;;7.53;2.53;;;-5.10;99.90;;;;;;5052082;28;20029;-76
2024/01/10 05:32:04;;;;;;;5.78;1.73;;;-5.10;99.90;;;;;;5054038;28;20029;-76
2024/01/10 05:34:30;;;;;;;6.00;2.25;;;-5.10;99.90;;;;;;5049085;28;20048;-76
2024/01/10 05:36:56;;;;;;;9.15;2.13;;;-5.10;99.90;;;;;;5049907;28;20104;-76
2024/01/10 05:39:22;;;;;;;8.32;2.15;;;-5.20;99.90;;;;;;5032234;28;20115;-76
2024/01/10 05:41:47;;;;;;;6.07;2.22;;;-5.20;99.90;;;;;;5044682;28;20695;-76
2024/01/10 05:44:14;;;;;;;6.18;1.77;;;-5.20;99.90;;;;;;5043883;28;20037;-75
2024/01/10 05:46:44;;;;;;;6.70;2.45;;;-5.20;99.90;;;;;;5041523;28;20025;-75
2024/01/10 05:49:15;;;;;;;4.80;1.63;;;-5.20;99.90;;;;;;5041684;28;20488;-76
2024/01/10 05:51:41;;;;;;;7.53;2.88;;;-5.20;99.90;;;;;;5043257;28;20625;-76
2024/01/10 05:54:07;;;;;;;10.65;2.97;;;-5.10;99.90;;;;;;5050065;28;20096;-76
2024/01/10 05:56:34;;;;;;;9.60;3.78;;;-5.10;99.90;;;;;;5047552;28;20067;-76
2024/01/10 05:59:01;;;;;;;5.25;1.55;;;-5.00;99.90;;;;;;5042532;28;20423;-76
2024/01/10 06:01:29;;;;;;;8.65;2.65;;;-5.00;99.90;;;;;;5025728;28;20061;-76
2024/01/10 06:03:54;;;;;;;7.38;2.33;;;-5.00;99.90;;;;;;5040944;28;20453;-77
2024/01/10 06:06:20;;;;;;;7.55;2.55;;;-5.00;99.90;;;;;;5029707;28;20056;-76
2024/01/10 06:08:46;;;;;;;10.52;4.00;;;-5.00;99.90;;;;;;5036670;28;20027;-76
2024/01/10 06:11:11;;;;;;;7.40;2.38;;;-5.00;99.90;;;;;;5037567;28;20449;-76
2024/01/10 06:13:37;;;;;;;5.45;1.95;;;-5.10;99.90;;;;;;5038227;28;20021;-76
2024/01/10 06:16:03;;;;;;;7.50;2.38;;;-5.10;99.90;;;;;;5038269;28;20033;-76
2024/01/10 06:18:29;;;;;;;8.00;3.25;;;-5.10;99.90;;;;;;5038949;28;20036;-76
2024/01/10 06:20:55;;;;;;;6.82;2.50;;;-5.10;99.90;;;;;;5046569;28;20033;-77
2024/01/10 06:23:20;;;;;;;9.82;3.60;;;-5.10;99.90;;;;;;5037106;28;20045;-77
2024/01/10 06:25:46;;;;;;;8.48;2.53;;;-5.10;99.90;;;;;;5042519;28;20033;-77
2024/01/10 06:28:11;;;;;;;7.65;2.78;;;-5.20;99.90;;;;;;5040026;28;20025;-77
2024/01/10 06:30:37;;;;;;;10.15;3.63;;;-5.20;99.90;;;;;;5041269;28;20064;-76
2024/01/10 06:33:04;;;;;;;11.07;3.60;;;-5.20;99.90;;;;;;5038230;28;20496;-76
2024/01/10 06:35:30;;;;;;;4.78;2.08;;;-5.20;99.90;;;;;;5042078;28;20439;-76
2024/01/10 06:37:55;;;;;;;8.20;2.97;;;-5.20;99.90;;;;;;5040544;28;20032;-76
2024/01/10 06:40:21;;;;;;;7.10;2.50;;;-5.30;99.90;;;;;;5041810;28;20032;-77
2024/01/10 06:42:47;;;;;;;6.40;2.20;;;-5.30;99.90;;;;;;5037794;28;20158;-77
2024/01/10 06:45:13;;;;;;;9.30;3.28;;;-5.30;99.90;;;;;;5037591;28;20045;-76
2024/01/10 06:47:39;;;;;;;7.38;2.35;;;-5.30;99.90;;;;;;5039236;28;20705;-76
2024/01/10 06:50:05;;;;;;;10.80;3.13;;;-5.30;99.90;;;;;;5030530;28;20132;-76
2024/01/10 06:52:31;;;;;;;8.50;2.88;;;-5.40;99.90;;;;;;5038433;28;20096;-76
2024/01/10 06:54:57;;;;;;;11.68;3.63;;;-5.30;99.90;;;;;;5041682;28;20044;-78
2024/01/10 06:57:23;;;;;;;9.00;3.58;;;-5.40;99.90;;;;;;5040814;28;20056;-77
2024/01/10 06:59:49;;;;;;;8.38;3.05;;;-5.40;99.90;;;;;;5046181;28;20047;-77
2024/01/10 07:02:15;;;;;;;9.02;3.15;;;-5.40;99.90;;;;;;5044326;28;20057;-77
2024/01/10 07:04:40;;;;;;;9.25;2.92;;;-5.40;99.90;;;;;;5042069;28;20128;-77
2024/01/10 07:07:08;;;;;;;9.23;2.70;;;-5.40;99.90;;;;;;5033737;28;21821;-77
2024/01/10 07:09:34;;;;;;;7.63;2.95;;;-5.40;99.90;;;;;;5042851;28;20075;-77
2024/01/10 07:11:59;;;;;;;10.98;3.47;;;-5.40;99.90;;;;;;5045101;28;20037;-77
2024/01/10 07:14:25;;;;;;;11.82;2.92;;;-5.40;99.90;;;;;;5044793;28;20035;-77
2024/01/10 07:16:51;;;;;;;12.73;3.53;;;-5.40;99.90;;;;;;5048144;28;20047;-77
2024/01/10 07:19:17;;;;;;;9.35;3.45;;;-5.50;99.90;;;;;;5045888;28;20017;-77
2024/01/10 07:21:43;;;;;;;10.02;3.72;;;-5.50;99.90;;;;;;5052105;28;20083;-76
2024/01/10 07:24:09;;;;;;;12.02;3.78;;;-5.50;99.90;;;;;;5046014;28;20075;-77
2024/01/10 07:26:36;;;;;;;8.70;3.22;;;-5.50;99.90;;;;;;5046376;28;20157;-77
2024/01/10 07:29:02;;;;;;;9.68;3.88;;;-5.50;99.90;;;;;;5047570;28;20491;-77
2024/01/10 07:31:29;;;;;;;12.30;4.00;;;-5.50;99.90;;;;;;5032979;28;20056;-77
2024/01/10 07:33:58;;;;;;;15.13;3.83;;;-5.50;99.90;;;;;;5044787;28;20086;-77
2024/01/10 07:36:29;;;;;;;12.30;4.15;;;-5.50;99.90;;;;;;5047034;28;20025;-77
2024/01/10 07:38:57;;;;;;;9.40;3.55;;;-5.50;99.90;;;;;;5051338;28;20154;-77
2024/01/10 07:41:22;;;;;;;13.13;4.28;;;-5.50;99.90;;;;;;5050615;28;20052;-76
2024/01/10 07:43:48;;;;;;;10.07;4.43;;;-5.50;99.90;;;;;;5053431;28;20480;-76
2024/01/10 07:46:14;;;;;;;14.75;4.30;;;-5.50;99.90;;;;;;5046067;28;20032;-77
2024/01/10 07:48:40;;;;;;;8.57;3.15;;;-5.40;99.90;;;;;;5045808;28;20029;-77
2024/01/10 07:51:06;;;;;;;9.77;4.00;;;-5.50;99.90;;;;;;5035057;28;20032;-77
2024/01/10 07:53:32;;;;;;;9.30;3.00;;;-5.50;99.90;;;;;;5043534;28;20115;-77
2024/01/10 07:55:57;;;;;;;11.93;4.25;;;-5.50;99.90;;;;;;5051001;28;20108;-77
2024/01/10 07:58:23;;;;;;;13.40;5.13;;;-5.50;99.90;;;;;;5051698;28;20028;-77
2024/01/10 08:00:48;;;;;;;12.85;4.28;;;-5.50;99.90;;;;;;5053287;28;20044;-78
2024/01/10 08:03:14;;;;;;;10.18;4.63;;;-5.50;99.90;;;;;;5042139;28;20477;-78
2024/01/10 08:05:40;;;;;;;11.18;4.25;;;-5.50;99.90;;;;;;5043201;28;20634;-77
2024/01/10 08:08:05;;;;;;;13.48;4.13;;;-5.50;99.90;;;;;;5046274;28;20144;-77
2024/01/10 08:10:32;;;;;;;12.52;4.28;;;-5.40;99.90;;;;;;5050404;28;20032;-77
2024/01/10 08:12:58;;;;;;;14.25;5.22;;;-5.40;99.90;;;;;;5046131;28;20028;-77
2024/01/10 08:15:23;;;;;;;15.35;4.90;;;-5.30;99.90;;;;;;5032654;28;20037;-77
2024/01/10 08:17:49;;;;;;;11.30;4.50;;;-5.30;99.90;;;;;;5038862;28;20393;-77
2024/01/10 08:20:19;;;;;;;11.27;4.75;;;-5.30;99.90;;;;;;5038935;28;20029;-77
2024/01/10 08:22:45;;;;;;;13.40;4.72;;;-5.20;99.90;;;;;;5041428;28;20049;-77
2024/01/10 08:25:11;;;;;;;12.93;5.13;;;-5.20;99.90;;;;;;5041681;28;20056;-78
2024/01/10 08:27:36;;;;;;;11.32;5.53;;;-5.20;99.90;;;;;;5046164;28;20025;-75
2024/01/10 08:30:05;;;;;;;16.58;5.70;;;-5.10;99.90;;;;;;5043071;28;20193;-76
2024/01/10 08:32:31;;;;;;;13.85;4.82;;;-5.10;99.90;;;;;;5041300;28;20036;-75
2024/01/10 08:34:57;;;;;;;13.77;6.10;;;-5.00;99.90;;;;;;5041933;28;20154;-75
2024/01/10 08:37:22;;;;;;;11.60;4.30;;;-4.90;99.90;;;;;;5028115;28;20156;-76
2024/01/10 08:39:50;;;;;;;14.63;5.18;;;-4.90;99.90;;;;;;5043009;28;20602;-76
2024/01/10 08:42:15;;;;;;;16.23;6.50;;;-4.90;99.90;;;;;;5037466;28;20136;-76
2024/01/10 08:44:41;;;;;;;18.15;5.80;;;-4.80;99.90;;;;;;5042383;28;20179;-75
2024/01/10 08:47:07;;;;;;;16.63;6.50;;;-4.80;99.90;;;;;;5048350;28;20472;-77
2024/01/10 08:49:33;;;;;;;15.05;6.22;;;-4.80;99.90;;;;;;5039978;28;20039;-78
2024/01/10 08:51:58;;;;;;;12.38;5.15;;;-4.70;99.90;;;;;;5059794;28;20057;-77
2024/01/10 08:54:25;;;;;;;13.90;5.70;;;-4.70;99.90;;;;;;5035542;28;20025;-77
2024/01/10 08:56:50;;;;;;;17.52;5.10;;;-4.60;99.90;;;;;;5040432;28;20025;-77
2024/01/10 08:59:16;;;;;;;15.80;5.70;;;-4.60;99.90;;;;;;5033273;28;20072;-77
2024/01/10 09:01:42;;;;;;;14.40;5.45;;;-4.50;99.90;;;;;;5038642;28;20016;-78
2024/01/10 09:04:08;;;;;;;20.67;8.25;;;-4.50;99.90;;;;;;5036539;28;20445;-79
2024/01/10 09:06:39;;;;;;;13.68;5.53;;;-4.40;99.90;;;;;;5051876;28;20044;-79
2024/01/10 09:09:04;;;;;;;15.10;5.55;;;-4.40;99.90;;;;;;5051732;28;20242;-79
2024/01/10 09:11:30;;;;;;;10.43;4.65;;;-4.40;99.90;;;;;;5050385;28;20104;-79
2024/01/10 09:13:56;;;;;;;15.27;6.95;;;-4.30;99.90;;;;;;5054295;28;20016;-79
2024/01/10 09:16:22;;;;;;;15.77;5.93;;;-4.20;99.90;;;;;;5032936;28;20036;-79
2024/01/10 09:18:49;;;;;;;16.83;5.93;;;-4.20;99.90;;;;;;5049457;28;20464;-78
2024/01/10 09:21:15;;;;;;;12.63;4.70;;;-4.10;99.90;;;;;;5051030;28;20088;-79
2024/01/10 09:23:41;;;;;;;16.23;6.80;;;-4.10;99.90;;;;;;5051535;28;20112;-79
2024/01/10 09:26:08;;;;;;;15.30;6.07;;;-4.00;99.90;;;;;;5034517;28;20374;-79
2024/01/10 09:28:34;;;;;;;18.70;6.88;;;-4.00;99.90;;;;;;5033496;28;20029;-80
2024/01/10 09:31:08;;;;;;;14.43;5.30;;;-3.90;99.90;;;;;;5045828;28;21716;-79
2024/01/10 09:33:38;;;;;;;11.40;5.22;;;-3.90;99.90;;;;;;5024557;28;20439;-77
2024/01/10 09:36:07;;;;;;;15.52;5.65;;;-3.80;99.90;;;;;;5047469;28;20079;-78
2024/01/10 09:38:37;;;;;;;15.52;6.22;;;-3.80;99.90;;;;;;5048793;28;20365;-79
2024/01/10 09:41:05;;;;;;;19.92;6.85;;;-3.70;99.90;;;;;;5022348;28;20063;-78
2024/01/10 09:43:33;;;;;;;14.02;6.38;;;-3.70;99.90;;;;;;5033048;28;20037;-78
2024/01/10 09:46:02;;;;;;;16.42;5.68;;;-3.70;99.90;;;;;;5038705;28;20467;-78
2024/01/10 09:48:27;;;;;;;19.05;7.35;;;-3.60;99.90;;;;;;5054208;28;20020;-78
2024/01/10 09:50:57;;;;;;;15.88;6.63;;;-3.50;99.90;;;;;;5033553;28;20288;-79
2024/01/10 09:53:26;;;;;;;19.55;6.22;;;-3.40;99.90;;;;;;5039279;28;20086;-79
2024/01/10 09:55:56;;;;;;;15.68;7.22;;;-3.30;99.90;;;;;;5033054;28;20060;-79
2024/01/10 09:58:24;;;;;;;20.27;7.47;;;-3.30;99.90;;;;;;5031475;28;20463;-79
2024/01/10 10:00:53;;;;;;;13.77;6.82;;;-3.20;99.90;;;;;;5049743;28;20048;-79
2024/01/10 10:03:22;;;;;;;15.35;6.13;;;-3.20;99.90;;;;;;5039002;28;20087;-79
2024/01/10 10:05:47;;;;;;;20.08;6.88;;;-3.10;99.90;;;;;;5048122;28;20041;-79
2024/01/10 10:08:23;;;;;;;19.15;6.85;;;-3.00;99.90;;;;;;5042159;28;20024;-78
2024/01/10 10:10:49;;;;;;;13.95;6.60;;;-3.00;99.90;;;;;;5049992;28;20031;-78
2024/01/10 10:13:27;;;;;;;17.65;6.18;;;-2.90;99.90;;;;;;5034526;28;20028;-78
2024/01/10 10:16:04;;;;;;;15.82;6.60;;;-2.80;99.90;;;;;;5023336;28;20032;-78
2024/01/10 10:18:31;;;;;;;14.43;6.32;;;-2.80;99.90;;;;;;5020273;28;20804;-79
2024/01/10 10:21:08;;;;;;;20.25;8.52;;;-2.70;99.90;;;;;;5043438;28;20029;-79
2024/01/10 10:23:35;;;;;;;17.40;7.15;;;-2.60;99.90;;;;;;5041270;28;20557;-78
2024/01/10 10:26:23;;;;;;;15.90;5.60;;;-2.60;99.90;;;;;;5048825;28;20079;-75
2024/01/10 10:28:50;;;;;;;25.27;7.20;;;-2.50;99.90;;;;;;5039860;28;20104;-77
2024/01/10 10:31:18;;;;;;;13.38;6.00;;;-2.40;99.90;;;;;;5038883;28;20052;-77
2024/01/10 10:33:44;;;;;;;15.38;6.25;;;-2.30;99.90;;;;;;5027271;28;20029;-77
2024/01/10 10:36:10;;;;;;;14.45;5.80;;;-2.30;99.90;;;;;;5050338;28;20108;-76
2024/01/10 10:38:37;;;;;;;15.63;6.53;;;-2.20;99.90;;;;;;5054556;28;20108;-76
2024/01/10 10:41:14;;;;;;;14.43;6.20;;;-2.20;99.90;;;;;;5033943;28;20029;-79
2024/01/10 10:43:41;;;;;;;16.63;7.05;;;-2.10;99.90;;;;;;5054157;28;20030;-77
2024/01/10 10:46:12;;;;;;;18.48;6.30;;;-2.00;99.90;;;;;;5052331;28;20095;-77
2024/01/10 10:48:38;;;;;;;12.98;6.50;;;-1.90;99.90;;;;;;5036078;28;20393;-77
2024/01/10 10:51:08;;;;;;;14.43;5.85;;;-1.90;99.90;;;;;;5043576;28;20453;-78
2024/01/10 10:53:35;;;;;;;15.95;6.30;;;-1.80;99.90;;;;;;5045515;28;20099;-78
2024/01/10 10:56:04;;;;;;;15.38;6.05;;;-1.80;99.90;;;;;;5045195;28;20021;-77
2024/01/10 10:58:40;;;;;;;15.48;6.63;;;-1.70;99.90;;;;;;5044557;28;20112;-77
2024/01/10 11:01:07;;;;;;;15.32;6.25;;;-1.60;99.30;;;;;;5029077;28;20496;-77
2024/01/10 11:03:38;;;;;;;15.75;7.13;;;-1.60;99.00;;;;;;5039273;28;20396;-75
2024/01/10 11:06:04;;;;;;;15.07;6.82;;;-1.50;98.80;;;;;;5041674;28;20098;-76
2024/01/10 11:08:35;;;;;;;17.92;7.03;;;-1.50;98.90;;;;;;5045855;28;20135;-77
2024/01/10 11:11:04;;;;;;;17.58;7.35;;;-1.50;97.90;;;;;;5044152;28;20041;-77
2024/01/10 11:14:00;;;;;;;15.73;7.10;;;-1.40;97.70;;;;;;5041742;28;20029;-77
2024/01/10 11:17:17;;;;;;;16.70;6.93;;;-1.40;96.90;;;;;;5047901;28;20029;-76
2024/01/10 11:20:20;;;;;;;14.00;6.20;;;-1.30;97.40;;;;;;5039113;28;20037;-77
2024/01/10 11:23:08;;;;;;;13.73;6.65;;;-1.30;97.50;;;;;;5052041;28;20120;-77
2024/01/10 11:25:36;;;;;;;16.95;6.97;;;-1.20;97.30;;;;;;5054424;28;20124;-77
2024/01/10 11:28:04;;;;;;;15.98;6.55;;;-1.20;97.20;;;;;;5048074;28;20029;-77
2024/01/10 11:30:39;;;;;;;15.73;6.53;;;-1.10;97.10;;;;;;5049737;28;20037;-78
2024/01/10 11:33:31;;;;;;;16.48;7.07;;;-1.10;96.30;;;;;;5052815;28;20071;-78
2024/01/10 11:36:20;;;;;;;13.05;6.80;;;-1.00;96.20;;;;;;5053800;28;20025;-78
2024/01/10 11:38:51;;;;;;;15.80;6.55;;;-1.00;96.40;;;;;;5044637;28;20037;-78
2024/01/10 11:41:24;;;;;;;19.20;7.63;;;-0.90;96.40;;;;;;5049870;28;20497;-78
2024/01/10 11:44:08;;;;;;;16.65;8.25;;;-0.90;95.90;;;;;;5029056;28;20033;-77
2024/01/10 11:46:37;;;;;;;18.23;6.50;;;-0.80;95.70;;;;;;5047401;28;20033;-77
2024/01/10 11:49:03;;;;;;;13.30;7.30;;;-0.80;95.20;;;;;;5045645;28;20025;-78
2024/01/10 11:51:30;;;;;;;18.60;7.45;;;-0.80;94.70;;;;;;5037429;28;20037;-77
2024/01/10 11:53:56;;;;;;;15.40;6.70;;;-0.70;94.40;;;;;;5052346;28;20048;-78
2024/01/10 11:56:22;;;;;;;18.83;7.75;;;-0.70;93.90;;;;;;5050342;28;20021;-78
2024/01/10 11:59:10;;;;;;;14.88;6.90;;;-0.70;94.30;;;;;;5039518;28;20039;-78
2024/01/10 12:01:37;;;;;;;18.50;7.60;;;-0.60;94.30;;;;;;5045999;28;20018;-77
2024/01/10 12:04:03;;;;;;;16.17;6.35;;;-0.60;94.00;;;;;;5046020;28;20068;-78
2024/01/10 12:06:31;;;;;;;15.00;6.60;;;-0.60;94.30;;;;;;5050675;28;20805;-78
2024/01/10 12:08:56;;;;;;;18.50;7.28;;;-0.50;94.00;;;;;;5029704;28;20036;-78
2024/01/10 12:11:23;;;;;;;15.75;6.95;;;-0.50;93.70;;;;;;5050364;28;20385;-78
2024/01/10 12:13:48;;;;;;;16.55;7.22;;;-0.40;94.00;;;;;;5051901;28;20021;-78
2024/01/10 12:16:14;;;;;;;14.48;6.63;;;-0.30;93.40;;;;;;5046417;28;20032;-78
2024/01/10 12:18:40;;;;;;;16.40;6.63;;;-0.30;93.70;;;;;;5037650;28;20025;-77
2024/01/10 12:21:08;;;;;;;16.65;6.45;;;-0.30;93.40;;;;;;5053145;28;20082;-78
2024/01/10 12:23:35;;;;;;;14.05;6.03;;;-0.20;93.50;;;;;;5053378;28;20045;-78
2024/01/10 12:26:04;;;;;;;14.35;6.63;;;-0.20;93.20;;;;;;5054125;28;20471;-77
2024/01/10 12:28:30;;;;;;;20.38;7.78;;;-0.20;92.40;;;;;;5053264;28;20025;-77
2024/01/10 12:30:57;;;;;;;16.38;7.05;;;-0.20;92.10;;;;;;5050530;28;20021;-77
2024/01/10 12:33:23;;;;;;;16.58;7.20;;;-0.20;92.30;;;;;;5033722;28;20018;-77
2024/01/10 12:36:09;;;;;;;21.85;7.50;;;-0.10;91.70;;;;;;5053029;28;20021;-77
2024/01/10 12:38:35;;;;;;;17.67;6.07;;;-0.10;91.20;;;;;;5053460;28;20021;-78
2024/01/10 12:41:01;;;;;;;16.48;6.90;;;-0.10;91.20;;;;;;5052291;28;20108;-78
2024/01/10 12:43:27;;;;;;;17.00;7.22;;;-0.10;91.10;;;;;;5053386;28;20032;-77
2024/01/10 12:46:13;;;;;;;16.63;7.40;;;0.00;91.00;;;;;;5050287;28;20029;-77